createdAt,value
2019-04-26T00:00:43.505Z,8.67
2019-04-26T00:03:10.663Z,8.90
2019-04-26T00:05:37.579Z,8.67
2019-04-26T00:08:05.595Z,10.23
2019-04-26T00:10:40.105Z,10.03
2019-04-26T00:13:29.660Z,9.80
2019-04-26T00:16:03.871Z,9.53
2019-04-26T00:18:31.098Z,9.53
2019-04-26T00:20:57.712Z,9.50
2019-04-26T00:23:25.807Z,9.70
2019-04-26T00:25:53.367Z,10.10
2019-04-26T00:28:21.185Z,9.93
2019-04-26T00:30:48.379Z,9.83
2019-04-26T00:33:15.327Z,10.10
2019-04-26T00:35:47.594Z,9.37
2019-04-26T00:38:11.633Z,11.30
2019-04-26T00:40:40.358Z,10.23
2019-04-26T00:43:07.610Z,10.97
2019-04-26T00:45:35.568Z,11.50
2019-04-26T00:48:03.140Z,11.10
2019-04-26T00:50:30.803Z,9.93
2019-04-26T00:52:58.575Z,11.60
2019-04-26T00:55:27.288Z,10.97
2019-04-26T00:57:54.307Z,10.70
2019-04-26T01:00:21.606Z,10.57
2019-04-26T01:02:51.603Z,9.37
2019-04-26T01:05:18.919Z,11.73
2019-04-26T01:07:49.472Z,10.87
2019-04-26T01:10:16.739Z,11.33
2019-04-26T01:12:44.619Z,11.30
2019-04-26T01:15:11.254Z,11.47
2019-04-26T01:17:39.664Z,11.80
2019-04-26T01:20:06.635Z,12.97
2019-04-26T01:22:35.275Z,13.10
2019-04-26T01:25:02.592Z,13.30
2019-04-26T01:27:31.304Z,13.13
2019-04-26T01:29:59.799Z,13.17
2019-04-26T01:32:26.704Z,13.73
2019-04-26T01:34:54.675Z,12.40
2019-04-26T01:37:22.509Z,12.90
2019-04-26T01:39:53.763Z,13.77
2019-04-26T01:42:36.994Z,14.37
2019-04-26T01:45:20.405Z,15.83
2019-04-26T01:47:49.827Z,13.57
2019-04-26T01:50:17.097Z,16.17
2019-04-26T01:52:45.015Z,15.23
2019-04-26T01:55:12.040Z,15.20
2019-04-26T01:57:40.515Z,16.77
2019-04-26T02:00:46.639Z,15.63
2019-04-26T02:03:19.007Z,15.90
2019-04-26T02:05:46.362Z,15.23
2019-04-26T02:08:13.047Z,14.23
2019-04-26T02:10:39.671Z,14.40
2019-04-26T02:13:06.287Z,15.00
2019-04-26T02:15:33.592Z,14.20
2019-04-26T02:18:01.289Z,15.63
2019-04-26T02:20:46.870Z,15.03
2019-04-26T02:23:20.167Z,16.10
2019-04-26T02:25:47.119Z,15.50
2019-04-26T02:28:14.158Z,15.63
2019-04-26T02:30:40.803Z,15.40
2019-04-26T02:33:07.768Z,17.87
2019-04-26T02:35:35.894Z,15.93
2019-04-26T02:38:02.963Z,16.20
2019-04-26T02:40:31.168Z,16.30
2019-04-26T02:42:58.564Z,15.40
2019-04-26T02:46:09.130Z,17.30
2019-04-26T02:48:56.891Z,16.87
2019-04-26T02:51:28.531Z,15.70
2019-04-26T02:54:09.507Z,16.97
2019-04-26T02:56:40.152Z,18.00
2019-04-26T02:59:40.788Z,16.70
2019-04-26T03:02:14.384Z,15.80
2019-04-26T03:04:43.276Z,17.97
2019-04-26T03:07:17.038Z,18.60
2019-04-26T03:09:44.643Z,16.93
2019-04-26T03:12:14.163Z,16.50
2019-04-26T03:15:13.599Z,17.17
2019-04-26T03:17:43.772Z,15.70
2019-04-26T03:20:12.983Z,16.80
2019-04-26T03:22:42.929Z,17.17
2019-04-26T03:25:15.709Z,16.90
2019-04-26T03:27:46.133Z,16.87
2019-04-26T03:30:22.141Z,15.90
2019-04-26T03:33:05.943Z,17.73
2019-04-26T03:35:57.029Z,16.30
2019-04-26T03:38:29.795Z,16.83
2019-04-26T03:41:04.647Z,17.33
2019-04-26T03:43:44.258Z,17.87
2019-04-26T03:46:19.363Z,17.70
2019-04-26T03:48:57.936Z,17.40
2019-04-26T03:51:35.679Z,18.73
2019-04-26T03:54:09.878Z,18.03
2019-04-26T03:56:51.352Z,17.73
2019-04-26T03:59:45.923Z,18.17
2019-04-26T04:02:36.611Z,17.53
2019-04-26T04:05:14.300Z,19.40
2019-04-26T04:07:47.224Z,18.37
2019-04-26T04:10:14.336Z,20.67
2019-04-26T04:12:51.416Z,21.17
2019-04-26T04:15:22.251Z,19.77
2019-04-26T04:17:54.264Z,19.97
2019-04-26T04:20:52.595Z,20.10
2019-04-26T04:23:26.461Z,20.03
2019-04-26T04:25:54.592Z,19.90
2019-04-26T04:28:26.803Z,19.13
2019-04-26T04:31:16.475Z,18.20
2019-04-26T04:34:02.824Z,18.40
2019-04-26T04:36:42.381Z,21.47
2019-04-26T04:39:13.357Z,19.40
2019-04-26T04:42:11.537Z,20.67
2019-04-26T04:45:01.248Z,21.17
2019-04-26T04:47:46.017Z,21.90
2019-04-26T04:50:34.562Z,21.40
2019-04-26T04:53:07.431Z,21.23
2019-04-26T04:55:49.939Z,19.73
2019-04-26T04:58:19.343Z,20.30
2019-04-26T05:01:32.047Z,20.47
2019-04-26T05:04:12.323Z,22.07
2019-04-26T05:07:06.070Z,21.43
2019-04-26T05:09:36.916Z,22.60
2019-04-26T05:12:06.911Z,22.63
2019-04-26T05:14:39.393Z,21.53
2019-04-26T05:17:31.571Z,22.87
2019-04-26T05:20:18.108Z,21.63
2019-04-26T05:23:12.499Z,22.47
2019-04-26T05:26:39.251Z,22.50
2019-04-26T05:29:12.035Z,23.40
2019-04-26T05:31:49.620Z,22.10
2019-04-26T05:34:31.204Z,22.73
2019-04-26T05:37:21.351Z,23.90
2019-04-26T05:40:07.878Z,22.83
2019-04-26T05:43:04.737Z,22.03
2019-04-26T05:46:15.632Z,21.70
2019-04-26T05:48:58.022Z,22.57
2019-04-26T05:51:56.288Z,24.20
2019-04-26T05:54:49.798Z,22.20
2019-04-26T05:57:38.688Z,23.13
2019-04-26T06:00:28.176Z,20.67
2019-04-26T06:03:28.771Z,22.50
2019-04-26T06:06:09.271Z,22.10
2019-04-26T06:09:18.817Z,23.00
2019-04-26T06:11:52.867Z,22.93
2019-04-26T06:14:42.582Z,23.90
2019-04-26T06:17:35.384Z,23.30
2019-04-26T06:20:26.807Z,23.97
2019-04-26T06:22:58.241Z,22.90
2019-04-26T06:25:33.904Z,22.63
2019-04-26T06:28:02.867Z,22.63
2019-04-26T06:30:45.363Z,23.33
2019-04-26T06:33:08.469Z,23.23
2019-04-26T06:35:39.576Z,22.70
2019-04-26T06:38:46.667Z,22.83
2019-04-26T06:42:00.735Z,22.90
2019-04-26T06:44:31.559Z,22.97
2019-04-26T06:47:16.423Z,21.97
2019-04-26T06:50:17.968Z,20.20
2019-04-26T06:52:48.200Z,22.00
2019-04-26T06:55:25.516Z,23.30
2019-04-26T06:58:13.315Z,21.10
2019-04-26T07:00:51.347Z,19.60
2019-04-26T07:03:29.016Z,22.43
2019-04-26T07:05:58.929Z,20.67
2019-04-26T07:08:31.595Z,22.30
2019-04-26T07:11:30.118Z,21.00
2019-04-26T07:14:22.358Z,21.97
2019-04-26T07:17:08.813Z,22.77
2019-04-26T07:20:01.439Z,22.77
2019-04-26T07:22:47.020Z,22.40
2019-04-26T07:25:49.026Z,20.73
2019-04-26T07:28:33.519Z,22.40
2019-04-26T07:31:19.684Z,22.43
2019-04-26T07:34:11.489Z,22.63
2019-04-26T07:36:57.286Z,20.60
2019-04-26T07:39:46.991Z,22.83
2019-04-26T07:42:36.404Z,21.20
2019-04-26T07:45:29.494Z,23.20
2019-04-26T07:48:19.120Z,25.23
2019-04-26T07:50:56.407Z,24.97
2019-04-26T07:53:48.328Z,26.33
2019-04-26T07:56:30.666Z,26.60
2019-04-26T07:59:27.028Z,24.87
2019-04-26T08:02:43.624Z,26.50
2019-04-26T08:05:15.631Z,25.27
2019-04-26T08:07:45.877Z,24.30
2019-04-26T08:10:14.783Z,25.80
2019-04-26T08:12:43.549Z,26.67
2019-04-26T08:15:40.287Z,25.43
2019-04-26T08:18:34.233Z,26.93
2019-04-26T08:21:13.781Z,24.73
2019-04-26T08:23:44.448Z,23.90
2019-04-26T08:26:13.645Z,27.23
2019-04-26T08:28:41.989Z,26.57
2019-04-26T08:31:15.412Z,26.80
2019-04-26T08:33:48.699Z,25.97
2019-04-26T08:36:15.764Z,25.60
2019-04-26T08:38:42.724Z,26.03
2019-04-26T08:41:09.915Z,26.57
2019-04-26T08:43:47.803Z,26.37
2019-04-26T08:46:36.198Z,27.80
2019-04-26T08:49:30.748Z,28.03
2019-04-26T08:51:58.931Z,26.00
2019-04-26T08:54:29.314Z,30.00
2019-04-26T08:57:02.024Z,28.90
2019-04-26T08:59:31.263Z,28.50
2019-04-26T09:02:17.523Z,29.57
2019-04-26T09:04:53.949Z,27.57
2019-04-26T09:07:25.775Z,26.47
2019-04-26T09:09:57.313Z,27.27
2019-04-26T09:12:27.450Z,26.60
2019-04-26T09:14:56.416Z,27.53
2019-04-26T09:17:23.067Z,31.23
2019-04-26T09:19:49.828Z,28.80
2019-04-26T09:22:33.555Z,28.60
2019-04-26T09:25:05.569Z,33.23
2019-04-26T09:27:42.627Z,28.90
2019-04-26T09:30:33.348Z,28.60
2019-04-26T09:33:08.013Z,29.70
2019-04-26T09:35:34.862Z,32.50
2019-04-26T09:38:03.402Z,31.40
2019-04-26T09:40:30.104Z,36.43
2019-04-26T09:43:15.070Z,34.80
2019-04-26T09:46:03.898Z,34.60
2019-04-26T09:48:42.297Z,33.70
2019-04-26T09:51:09.656Z,35.10
2019-04-26T09:53:39.470Z,32.30
2019-04-26T09:56:05.907Z,33.03
2019-04-26T10:01:19.742Z,30.23
2019-04-26T10:03:48.131Z,30.07
2019-04-26T10:06:15.497Z,32.57
2019-04-26T10:08:47.053Z,31.00
2019-04-26T10:11:15.651Z,28.77
2019-04-26T10:13:59.458Z,31.47
2019-04-26T10:16:33.585Z,30.80
2019-04-26T10:19:07.300Z,31.53
2019-04-26T10:21:34.531Z,28.50
2019-04-26T10:24:01.688Z,28.33
2019-04-26T10:26:29.925Z,30.47
2019-04-26T10:28:57.518Z,29.13
2019-04-26T10:31:24.711Z,30.10
2019-04-26T10:33:52.019Z,26.63
2019-04-26T10:36:19.579Z,26.07
2019-04-26T10:38:46.603Z,29.80
2019-04-26T10:41:13.983Z,27.07
2019-04-26T10:43:41.051Z,26.67
2019-04-26T10:46:09.103Z,24.90
2019-04-26T10:48:36.088Z,22.10
2019-04-26T10:51:06.822Z,22.07
2019-04-26T10:53:40.129Z,22.37
2019-04-26T10:56:29.164Z,22.77
2019-04-26T10:59:11.161Z,23.17
2019-04-26T11:01:37.812Z,22.10
2019-04-26T11:04:05.313Z,21.67
2019-04-26T11:06:31.972Z,20.97
2019-04-26T11:08:58.594Z,23.33
2019-04-26T11:11:25.232Z,24.30
2019-04-26T11:13:52.547Z,23.80
2019-04-26T11:16:19.851Z,23.13
2019-04-26T11:18:46.910Z,21.97
2019-04-26T11:21:16.352Z,21.30
2019-04-26T11:23:45.554Z,19.37
2019-04-26T11:26:11.296Z,19.03
2019-04-26T11:28:38.667Z,19.27
2019-04-26T11:31:05.719Z,20.17
2019-04-26T11:33:44.373Z,20.80
2019-04-26T11:36:03.361Z,19.30
2019-04-26T11:38:31.206Z,18.93
2019-04-26T11:41:06.141Z,20.67
2019-04-26T11:43:28.635Z,17.97
2019-04-26T11:46:04.228Z,14.60
2019-04-26T11:48:25.441Z,9.97
2019-04-26T11:50:53.686Z,10.00
2019-04-26T11:53:22.154Z,9.13
2019-04-26T11:55:49.398Z,10.80
2019-04-26T11:58:17.857Z,10.03
2019-04-26T12:00:50.976Z,9.57
2019-04-26T12:03:21.239Z,8.93
2019-04-26T12:06:12.965Z,9.10
2019-04-26T12:08:46.848Z,8.47
2019-04-26T12:11:18.656Z,8.60
2019-04-26T12:13:43.794Z,9.60
2019-04-26T12:16:10.435Z,8.73
2019-04-26T12:18:40.269Z,9.27
2019-04-26T12:21:07.182Z,8.30
2019-04-26T12:23:34.947Z,10.63
2019-04-26T12:26:02.199Z,10.53
2019-04-26T12:28:29.174Z,10.80
2019-04-26T12:30:58.562Z,9.57
2019-04-26T12:33:24.955Z,9.57
2019-04-26T12:35:56.832Z,9.47
2019-04-26T12:38:24.154Z,9.77
2019-04-26T12:40:50.339Z,9.67
2019-04-26T12:43:20.114Z,9.00
2019-04-26T12:46:14.179Z,8.70
2019-04-26T12:48:41.360Z,8.90
2019-04-26T12:51:11.922Z,8.50
2019-04-26T12:53:37.504Z,7.97
2019-04-26T12:56:04.588Z,7.50
2019-04-26T12:58:32.839Z,8.13
2019-04-26T13:01:00.800Z,6.43
2019-04-26T13:03:29.190Z,7.20
2019-04-26T13:05:58.794Z,6.43
2019-04-26T13:08:26.291Z,6.93
2019-04-26T13:11:18.259Z,7.30
2019-04-26T13:13:51.031Z,5.93
2019-04-26T13:16:42.363Z,6.67
2019-04-26T13:19:09.823Z,5.87
2019-04-26T13:21:37.370Z,7.47
2019-04-26T13:24:06.220Z,7.57
2019-04-26T13:26:34.906Z,9.57
2019-04-26T13:29:01.541Z,8.43
2019-04-26T13:31:31.615Z,7.03
2019-04-26T13:33:58.336Z,5.20
2019-04-26T13:36:28.975Z,4.40
2019-04-26T13:38:54.596Z,4.43
2019-04-26T13:41:21.375Z,4.50
2019-04-26T13:43:48.199Z,4.63
2019-04-26T13:46:38.140Z,3.43
2019-04-26T13:49:14.196Z,3.80
2019-04-26T13:51:42.131Z,3.70
2019-04-26T13:54:08.755Z,3.53
2019-04-26T13:56:36.013Z,3.47
2019-04-26T13:59:04.279Z,3.60
2019-04-26T14:01:31.320Z,3.70
2019-04-26T14:03:57.988Z,3.13
2019-04-26T14:06:24.928Z,4.60
2019-04-26T14:08:53.977Z,3.30
2019-04-26T14:11:27.898Z,3.33
2019-04-26T14:13:49.551Z,3.77
2019-04-26T14:16:21.236Z,4.07
2019-04-26T14:18:47.020Z,3.43
2019-04-26T14:21:14.654Z,3.23
2019-04-26T14:24:07.530Z,3.33
2019-04-26T14:26:39.988Z,3.80
2019-04-26T14:29:07.190Z,4.13
2019-04-26T14:31:34.890Z,3.47
2019-04-26T14:34:05.401Z,3.03
2019-04-26T14:36:31.151Z,4.10
2019-04-26T14:39:05.691Z,3.47
2019-04-26T14:41:26.597Z,3.77
2019-04-26T14:43:56.771Z,3.83
2019-04-26T14:46:29.455Z,3.33
2019-04-26T14:49:01.988Z,4.13
2019-04-26T14:51:26.007Z,3.90
2019-04-26T14:53:54.565Z,3.77
2019-04-26T14:56:24.645Z,3.43
2019-04-26T14:58:50.368Z,2.53
2019-04-26T15:01:43.335Z,3.47
2019-04-26T15:04:29.086Z,3.47
2019-04-26T15:06:58.190Z,3.43
2019-04-26T15:09:32.708Z,4.67
2019-04-26T15:11:59.510Z,4.30
2019-04-26T15:14:23.222Z,4.20
2019-04-26T15:16:51.467Z,4.67
2019-04-26T15:19:18.416Z,4.00
2019-04-26T15:21:45.352Z,5.97
2019-04-26T15:24:12.824Z,5.73
2019-04-26T15:26:39.691Z,6.53
2019-04-26T15:29:06.302Z,6.40
2019-04-26T15:31:33.147Z,5.47
2019-04-26T15:33:59.867Z,6.20
2019-04-26T15:36:26.860Z,5.73
2019-04-26T15:38:54.171Z,5.13
2019-04-26T15:41:41.004Z,6.17
2019-04-26T15:44:14.634Z,6.80
2019-04-26T15:46:55.428Z,4.90
2019-04-26T15:49:42.913Z,6.43
2019-04-26T15:52:10.032Z,6.50
2019-04-26T15:54:37.637Z,5.70
2019-04-26T15:57:06.616Z,6.70
2019-04-26T15:59:33.935Z,6.50
2019-04-26T16:02:02.383Z,6.90
2019-04-26T16:04:29.280Z,7.60
2019-04-26T16:06:56.935Z,7.57
2019-04-26T16:09:24.271Z,7.40
2019-04-26T16:11:53.127Z,7.53
2019-04-26T16:14:19.996Z,8.47
2019-04-26T16:16:46.618Z,8.47
2019-04-26T16:19:13.713Z,8.73
2019-04-26T16:21:40.452Z,9.33
2019-04-26T16:24:07.516Z,7.97
2019-04-26T16:26:35.943Z,10.37
2019-04-26T16:29:18.389Z,9.50
2019-04-26T16:32:21.937Z,11.40
2019-04-26T16:34:48.738Z,11.80
2019-04-26T16:37:21.562Z,11.80
2019-04-26T16:39:48.389Z,11.90
2019-04-26T16:42:13.946Z,11.40
2019-04-26T16:44:44.929Z,11.60
2019-04-26T16:47:13.064Z,13.17
2019-04-26T16:49:41.880Z,14.20
2019-04-26T16:52:08.710Z,12.90
2019-04-26T16:54:35.757Z,13.87
2019-04-26T16:57:06.674Z,11.60
2019-04-26T16:59:32.894Z,12.83
2019-04-26T17:02:02.489Z,13.60
2019-04-26T17:04:31.991Z,13.37
2019-04-26T17:07:02.104Z,11.77
2019-04-26T17:09:29.600Z,12.87
2019-04-26T17:11:57.058Z,13.77
2019-04-26T17:14:24.669Z,12.00
2019-04-26T17:16:53.193Z,13.47
2019-04-26T17:19:22.639Z,13.10
2019-04-26T17:22:00.940Z,14.17
2019-04-26T17:24:47.140Z,14.63
2019-04-26T17:27:15.433Z,13.60
2019-04-26T17:29:42.491Z,15.40
2019-04-26T17:32:15.507Z,14.60
2019-04-26T17:34:40.589Z,16.30
2019-04-26T17:37:12.232Z,14.80
2019-04-26T17:39:37.731Z,15.33
2019-04-26T17:42:04.367Z,14.37
2019-04-26T17:44:33.974Z,13.23
2019-04-26T17:47:02.124Z,11.93
2019-04-26T17:49:32.649Z,11.53
2019-04-26T17:51:58.415Z,9.30
2019-04-26T17:54:45.665Z,9.70
2019-04-26T17:56:56.426Z,9.70
2019-04-26T17:59:33.718Z,9.57
2019-04-26T18:02:00.500Z,9.30
2019-04-26T18:04:32.304Z,9.60
2019-04-26T18:06:55.862Z,11.10
2019-04-26T18:09:40.330Z,8.90
2019-04-26T18:11:51.076Z,9.70
2019-04-26T18:14:21.511Z,10.47
2019-04-26T18:17:01.390Z,10.10
2019-04-26T18:19:45.425Z,11.20
2019-04-26T18:22:43.691Z,11.50
2019-04-26T18:25:12.550Z,13.20
2019-04-26T18:27:39.604Z,12.00
2019-04-26T18:33:34.479Z,12.43
2019-04-26T18:36:02.041Z,13.07
2019-04-26T18:38:28.632Z,14.77
2019-04-26T18:41:00.430Z,14.30
2019-04-26T18:43:24.478Z,16.20
2019-04-26T18:45:53.432Z,18.33
2019-04-26T18:48:20.645Z,18.77
2019-04-26T18:50:47.581Z,19.40
2019-04-26T18:53:43.862Z,18.80
2019-04-26T18:56:12.646Z,18.60
2019-04-26T18:58:40.695Z,21.10
2019-04-26T19:01:10.775Z,21.83
2019-04-26T19:03:37.411Z,21.20
2019-04-26T19:06:05.785Z,20.93
2019-04-26T19:08:43.865Z,24.30
2019-04-26T19:11:03.510Z,23.93
2019-04-26T19:13:40.406Z,23.63
2019-04-26T19:16:18.157Z,24.40
2019-04-26T19:19:15.348Z,24.40
2019-04-26T19:22:00.713Z,31.37
2019-04-26T19:24:26.829Z,29.80
2019-04-26T19:26:53.453Z,31.90
2019-04-26T19:29:28.822Z,33.13
2019-04-26T19:31:52.272Z,32.70
2019-04-26T19:34:19.524Z,34.33
2019-04-26T19:36:47.580Z,37.37
2019-04-26T19:39:16.426Z,32.97
2019-04-26T19:41:43.168Z,36.80
2019-04-26T19:44:14.565Z,36.27
2019-04-26T19:46:53.631Z,39.40
2019-04-26T19:49:38.471Z,37.33
2019-04-26T19:52:22.133Z,40.73
2019-04-26T19:54:54.972Z,41.50
2019-04-26T19:57:25.228Z,40.30
2019-04-26T19:59:52.589Z,38.65
2019-04-26T20:02:21.182Z,42.20
2019-04-26T20:04:49.036Z,39.90
2019-04-26T20:07:16.473Z,39.57
2019-04-26T20:09:43.714Z,41.40
2019-04-26T20:12:12.217Z,40.07
2019-04-26T20:14:50.383Z,39.83
2019-04-26T20:17:13.227Z,41.87
2019-04-26T20:19:39.063Z,42.07
2019-04-26T20:22:06.008Z,38.17
2019-04-26T20:24:33.740Z,43.47
2019-04-26T20:27:01.442Z,41.53
2019-04-26T20:29:32.275Z,44.80
2019-04-26T20:32:26.439Z,42.50
2019-04-26T20:35:13.367Z,42.60
2019-04-26T20:37:42.522Z,41.20
2019-04-26T20:40:20.265Z,40.00
2019-04-26T20:42:39.832Z,44.03
2019-04-26T20:45:08.452Z,42.77
2019-04-26T20:47:36.383Z,43.87
2019-04-26T20:50:03.411Z,43.00
2019-04-26T20:52:32.154Z,43.60
2019-04-26T20:54:59.287Z,45.67
2019-04-26T20:57:30.620Z,42.90
2019-04-26T21:00:01.555Z,42.73
2019-04-26T21:02:24.874Z,43.37
2019-04-26T21:04:51.829Z,44.77
2019-04-26T21:07:19.516Z,44.80
2019-04-26T21:09:47.787Z,46.20
2019-04-26T21:12:18.254Z,46.77
2019-04-26T21:14:45.421Z,45.70
2019-04-26T21:17:13.432Z,44.10
2019-04-26T21:19:41.723Z,41.90
2019-04-26T21:22:08.655Z,42.83
2019-04-26T21:24:38.796Z,41.40
2019-04-26T21:27:33.260Z,44.80
2019-04-26T21:30:21.528Z,44.30
2019-04-26T21:33:23.964Z,41.67
2019-04-26T21:35:57.567Z,39.13
2019-04-26T21:38:35.371Z,40.83
2019-04-26T21:41:11.298Z,40.43
2019-04-26T21:43:38.250Z,38.23
2019-04-26T21:46:08.581Z,38.63
2019-04-26T21:48:37.338Z,41.13
2019-04-26T21:51:03.184Z,37.53
2019-04-26T21:53:32.727Z,40.57
2019-04-26T21:56:03.021Z,40.20
2019-04-26T21:58:30.615Z,38.17
2019-04-26T22:01:15.713Z,38.77
2019-04-26T22:03:47.450Z,37.37
2019-04-26T22:06:14.244Z,36.03
2019-04-26T22:08:50.259Z,36.17
2019-04-26T22:11:20.088Z,35.53
2019-04-26T22:13:59.463Z,37.47
2019-04-26T22:16:46.790Z,35.60
2019-04-26T22:19:27.933Z,35.20
2019-04-26T22:22:08.831Z,32.87
2019-04-26T22:24:37.030Z,33.30
2019-04-26T22:27:03.921Z,33.13
2019-04-26T22:29:33.302Z,30.90
2019-04-26T22:32:00.136Z,31.13
2019-04-26T22:34:26.751Z,34.17
2019-04-26T22:36:53.935Z,31.97
2019-04-26T22:39:20.691Z,33.83
2019-04-26T22:41:47.806Z,34.23
2019-04-26T22:44:31.302Z,33.60
2019-04-26T22:47:09.127Z,35.40
2019-04-26T22:49:41.811Z,34.80
2019-04-26T22:52:06.305Z,33.87
2019-04-26T22:54:37.722Z,35.83
2019-04-26T22:57:03.926Z,36.27
2019-04-26T22:59:30.704Z,36.60
2019-04-26T23:01:57.687Z,36.43
2019-04-26T23:04:26.462Z,36.83
2019-04-26T23:06:54.252Z,34.90
2019-04-26T23:09:23.189Z,35.20
2019-04-26T23:11:57.363Z,35.60
2019-04-26T23:14:33.596Z,33.40
2019-04-26T23:17:35.303Z,33.57
2019-04-26T23:20:23.347Z,34.13
2019-04-26T23:22:52.953Z,33.73
2019-04-26T23:25:19.799Z,38.20
2019-04-26T23:27:46.434Z,35.57
2019-04-26T23:30:14.718Z,34.93
2019-04-26T23:32:43.326Z,31.43
2019-04-26T23:35:10.630Z,32.33
2019-04-26T23:37:37.428Z,30.27
2019-04-26T23:40:04.128Z,28.50
2019-04-26T23:42:30.895Z,26.67
2019-04-26T23:44:57.539Z,27.23
2019-04-26T23:47:25.646Z,28.67
2019-04-26T23:49:55.887Z,27.07
2019-04-26T23:52:23.036Z,25.60
2019-04-26T23:54:52.954Z,28.20
2019-04-26T23:57:21.367Z,28.10
2019-04-26T23:59:51.030Z,24.80
